Anthony Murphy

Olheiro-Chefe - Ipswich Town
3 Dez 2028
Domingo
Processo

Personalidade

Adaptabilidade (5) Ambição (2) Controvérsia (7) Lealdade (8) Pressão (3) Profissionalismo (5) Espírito Esportivo (4) Temperamento (16)

Perfil

Estilo de Treinamento Democrático
Licença Continental B
Determinação 12
Gestão de Pessoas 12
Motivação 12
Disciplina 4
Satisfação no Trabalho
100%
Fadiga
0%
Função Olheiro-Chefe
Salário 27.2K p/s
Contrato 14.03.2030

Desempenho

Comportamento Bom
Eficácia do Treinamento
50%
Desenvolvimento do Jogador
30%
Prevenção de Lesões
45%
Implementação Tática
30%

Eventos Recentes

Participou de uma reunião de recrutamento agora
Recomendou um alvo de transferência agora
Recomendou um alvo de transferência agora
Participou de uma reunião de recrutamento 7d atrás
Recomendou um alvo de transferência 7d atrás
Recomendou um alvo de transferência 7d atrás
Recomendou um alvo de transferência 7d atrás
Recomendou um alvo de transferência 7d atrás

Monitorando agora

166
Jogador Clube Status Habilidade Confiança Observado Última observação Último voto
Yousef Salech Cardiff City Ativo 138 / 143 55% 1 12.06.2028 -
Ronan Kpakio AC Milan Ativo 124 / 130 40% 2 31.05.2028 -
Riquelme Thompson-Jones Accrington Stanley Ativo 105 / 126 40% 7 29.05.2028 -
Josh Nichols Oldham Athletic Ativo 120 / 124 40% 5 27.05.2028 -
Giovanni Leoni Lincoln City Ativo 153 / 145 40% 3 27.05.2028 -
Jan Bürger Northampton Town Ativo 110 / 119 40% 3 24.05.2028 -
Amine Boukamir Charleroi Ativo 100 / 107 40% 3 24.05.2028 -
Joel Ezra Enyimba Ativo 101 / 101 40% 1 24.05.2028 -
Jorthy Mokio ADO Den Haag Ativo 135 / 141 40% 3 22.05.2028 -
Trey Nyoni Rotherham United Ativo 134 / 135 40% 4 22.05.2028 -
Oskar Pietuszewski Estrela da Amadora Ativo 121 / 138 40% 1 21.05.2028 -
Gabriel Mec Feirense Ativo 118 / 130 40% 1 21.05.2028 -
Miguel Figueiredo Benfica Ativo 126 / 132 40% 4 19.05.2028 -
Tyler Fletcher Rotherham United Ativo 118 / 128 40% 3 18.05.2028 -
Martim Cunha Porto Ativo 113 / 109 40% 2 16.05.2028 -
Lautaro Dufur Juventud Ativo 105 / 120 40% 1 15.05.2028 -
Bernardo Lima Porto Ativo 103 / 123 40% 3 12.05.2028 -
Olivier Mambwa Young Boys Ativo 109 / 124 40% 1 10.05.2028 -
Andrey Ivlev Nizhniy Novgorod Ativo 110 / 109 40% 3 09.05.2028 -
Rio Ngumoha Plymouth Argyle Ativo 138 / 136 40% 1 09.05.2028 -
André Miranda Porto Ativo 109 / 115 40% 1 09.05.2028 -
Noahkai Banks FC Augsburg Ativo 151 / 153 40% 1 07.05.2028 -
Shea Lacey Crystal Palace Ativo 130 / 143 40% 1 06.05.2028 -
Gabe Forsyth Colchester United Ativo 106 / 115 40% 1 06.05.2028 -
Luka Vušković Tottenham Ativo 138 / 144 40% 1 06.05.2028 -
Nazareno Roselli Defensa y Justicia Ativo 117 / 128 40% 1 05.05.2028 -
Ryan Kavuma-McQueen Accrington Stanley Ativo 130 / 126 40% 1 03.05.2028 -
Giovanni Cantizano Fulham Ativo 125 / 125 40% 1 02.05.2028 -
Daniel Banjaqui Benfica Ativo 125 / 123 40% 4 29.04.2028 -
Olivier Leroux Mouscron Ativo 113 / 102 40% 4 27.04.2028 -
Celías Ingenthron Platense Ativo 132 / 136 40% 1 24.04.2028 -
Denys Smetana Rukh Ativo 97 / 104 40% 1 22.04.2028 -
Victor Hernandez Santa Fe Ativo 136 / 107 40% 1 10.04.2028 -
Josh Acheampong Everton Ativo 132 / 158 40% 3 08.04.2028 -
Ayden Heaven Portsmouth Ativo 142 / 149 40% 2 04.04.2028 -
Honest Ahanor Atalanta Ativo 147 / 136 40% 1 04.04.2028 -
Nejc Viher NK Maribor Ativo 130 / 142 40% 4 03.04.2028 -
Federico Matarán Giana Erminio Ativo 95 / 124 40% 2 02.04.2028 -
Kiani Inge Groningen Ativo 117 / 117 40% 2 23.03.2028 -
Tobiáš Pališčák Zlin Ativo 89 / 105 40% 1 23.03.2028 -
Matvey Bardachev Zenit Ativo 99 / 97 40% 3 18.03.2028 -
Augusto Bando Ascoli Ativo 113 / 107 40% 1 18.03.2028 -
Christos Mouzakitis Hull City Ativo 137 / 146 40% 1 17.03.2028 -
Alessio Insignito Spezia Ativo 112 / 119 40% 1 10.03.2028 -
Jakub Adkonis Korona Ativo 114 / 109 40% 1 08.03.2028 -
Harbor Miller LA Galaxy Ativo 112 / 121 40% 1 14.02.2028 -
Mao Hosoya Santos Ativo 134 / 135 67% 1 01.01.2028 Aprovar
Toni Fruk Talleres Ativo 132 / 133 66% 1 01.01.2028 Aprovar
Dion Beljo AJ Auxerre Ativo 131 / 132 66% 1 01.01.2028 Aprovar
Kevin Schade Chelsea Ativo 149 / 157 40% 2 29.12.2027 -
Kasey McAteer Barnsley Ativo 139 / 128 40% 1 28.12.2027 -
Amine Adli Bournemouth Ativo 140 / 142 40% 3 27.12.2027 -
Callum Hudson-Odoi Nottingham Forest Ativo 159 / 155 40% 1 27.12.2027 -
Tino Livramento Newcastle United Ativo 155 / 156 40% 1 25.12.2027 -
Carlos Alcaraz Stoke City Ativo 144 / 141 40% 2 22.12.2027 -
Max Bird Birmingham Ativo 126 / 125 40% 1 22.12.2027 -
Óscar Mingueza Crystal Palace Ativo 149 / 141 40% 2 20.12.2027 -
Fábio Carvalho Brentford Ativo 132 / 136 40% 5 17.12.2027 -
Moisés Caicedo Chelsea Ativo 174 / 184 40% 2 17.12.2027 -
Emile Smith Rowe Cardiff City Ativo 146 / 164 40% 5 16.12.2027 -
Evann Guessand Aston Villa Ativo 163 / 143 40% 2 16.12.2027 -
Jaidon Anthony Derby County Ativo 136 / 126 40% 4 14.12.2027 -
Jaden Philogene Wolverhampton Ativo 151 / 142 40% 2 14.12.2027 -
Marcus Tavernier Bournemouth Ativo 156 / 155 40% 1 11.12.2027 -
Manuel Ugarte Leicester City Ativo 157 / 154 40% 1 11.12.2027 -
Mikkel Damsgaard Brentford Ativo 155 / 140 40% 2 10.12.2027 -
Jayden Bogle Leeds United Ativo 138 / 133 40% 2 10.12.2027 -
Nicolás González Juventus Ativo 157 / 147 40% 2 09.12.2027 -
Boubacar Kamara Aston Villa Ativo 179 / 178 40% 3 06.12.2027 -
Ismaïla Sarr Crystal Palace Ativo 144 / 144 40% 2 06.12.2027 -
Matteo Ruggeri Middlesbrough Ativo 161 / 157 40% 3 05.12.2027 -
Zito Luvumbo Cagliari Ativo 127 / 126 40% 1 04.12.2027 -
Xaver Schlager Nottingham Forest Ativo 168 / 149 40% 1 02.12.2027 -
Gonçalo Oliveira Benfica Ativo 112 / 125 40% 1 02.12.2027 -
Kevin Fulham Ativo 159 / 156 40% 5 27.11.2027 -
Tobias Moi Lillestrom Ativo 93 / 112 40% 1 27.11.2027 -
Exequiel Palacios Lazio Ativo 164 / 166 40% 2 26.11.2027 -
Mohamed-Ali Cho Hull City Ativo 147 / 141 40% 3 23.11.2027 -
Juanlu Bournemouth Ativo 149 / 164 40% 2 22.11.2027 -
William Osula Wrexham Ativo 139 / 137 40% 1 22.11.2027 -
Ryan Sessegnon Fulham Ativo 148 / 156 40% 2 21.11.2027 -
Ben Gannon Doak Charlton Athletic Ativo 142 / 147 40% 2 20.11.2027 -
Largie Ramazani Leeds United Ativo 140 / 148 40% 1 20.11.2027 -
Jack McGlynn Stoke City Ativo 128 / 147 40% 4 16.11.2027 -
Esquerdinha Notts County Ativo 109 / 117 40% 1 16.11.2027 -
Eddie Nketiah Crystal Palace Ativo 153 / 137 40% 2 13.11.2027 -
Savinho Tottenham Ativo 168 / 164 40% 1 12.11.2027 -
João Pedro Chelsea Ativo 145 / 148 40% 2 11.11.2027 -
Xavi Simons Tottenham Ativo 164 / 160 40% 1 11.11.2027 -
Christian Pulisic AC Milan Ativo 157 / 163 40% 1 07.11.2027 -
Harry Wilson Leeds United Ativo 142 / 155 40% 1 06.11.2027 -
Igor Burnley Ativo 150 / 141 40% 1 06.11.2027 -
Marquinhos Spartak Moscow Ativo 150 / 128 40% 1 05.11.2027 -
Adrian Skogmar Malmo FF Ativo 126 / 116 40% 1 04.11.2027 -
Quinten Timber Crystal Palace Ativo 148 / 147 40% 2 02.11.2027 -
James Maddison Tottenham Ativo 150 / 167 40% 1 31.10.2027 -
Brooke Norton-Cuffy Hull City Ativo 132 / 142 40% 1 27.10.2027 -
Nordi Mukiele Sunderland Ativo 161 / 139 40% 3 22.10.2027 -
Omari Hutchinson Nottingham Forest Ativo 143 / 146 40% 1 20.10.2027 -
Pedro Porro Tottenham Ativo 148 / 157 40% 2 19.10.2027 -
Rico Henry River Plate Ativo 148 / 136 40% 1 17.10.2027 -
Morgan Rogers Chelsea Ativo 175 / 152 40% 1 16.10.2027 -
David Brooks Bournemouth Ativo 154 / 135 40% 1 14.10.2027 -
Amadou Onana Aston Villa Ativo 171 / 153 40% 1 12.10.2027 -
Yeremy Pino Crystal Palace Ativo 148 / 166 40% 1 09.10.2027 -
Archie Gray Southampton Ativo 150 / 152 40% 1 08.10.2027 -
Chemsdine Talbi Sunderland Ativo 140 / 147 40% 4 06.10.2027 -
Enzo Le Fée Sunderland Ativo 132 / 143 40% 2 05.10.2027 -
André Wolverhampton Ativo 158 / 150 40% 1 05.10.2027 -
Malo Gusto Chelsea Ativo 152 / 166 40% 2 04.10.2027 -
Charles De Ketelaere Tottenham Ativo 148 / 146 40% 2 01.10.2027 -
Julio Enciso Aston Villa Ativo 150 / 150 40% 1 30.09.2027 -
Reece James Chelsea Ativo 187 / 166 40% 1 26.09.2027 -
Nicolas Jackson Aston Villa Ativo 157 / 138 40% 1 21.09.2027 -
Toby Collyer West Bromwich Albion Ativo 142 / 130 40% 1 18.09.2027 -
James McAtee Everton Ativo 155 / 158 40% 1 12.09.2027 -
Ismaël Bennacer Boca Juniors Ativo 139 / 144 40% 1 12.09.2027 -
Quilindschy Hartman Burnley Ativo 154 / 153 40% 1 11.09.2027 -
Carlos Baleba Norwich City Ativo 155 / 153 40% 1 06.09.2027 -
Zion Suzuki Aston Villa Ativo 154 / 157 40% 1 29.06.2027 -
Temirlan Anarbekov Kairat Ativo 110 / 107 40% 1 28.06.2027 -
Tiago Freitas Benfica Ativo 103 / 111 40% 1 03.06.2027 -
Yehor Yarmoliuk Brentford Ativo 137 / 159 40% 2 01.06.2027 -
Pedro de la Vega Columbus Crew Ativo 133 / 134 66% 1 01.06.2027 Aprovar
António Silva Bournemouth Ativo 154 / 152 40% 1 01.06.2027 -
Samuele di Benedetto Twente Ativo 114 / 114 40% 1 31.05.2027 -
Lucas Agazzi Villarreal Ativo 128 / 127 40% 1 15.01.2027 -
Cemran Dansin Orlando Pirates Ativo 116 / 121 40% 1 15.01.2027 -
Owen Lunt Crewe Alexandra Ativo 90 / 115 40% 2 12.01.2027 -
Caleb Yirenkyi Coventry City Ativo 145 / 133 40% 3 11.01.2027 -
David Ozoh Derby County Ativo 118 / 134 40% 1 07.01.2027 -
Kamaldeen Atiemo Wa All Stars Ativo 87 / 91 40% 1 05.01.2027 -
Reed Baker-Whiting Nashville SC Ativo 100 / 105 40% 2 02.01.2027 -
Diogo Monteiro Tondela Ativo 106 / 98 40% 1 01.01.2027 -
Jesus Ferreira Seattle Sounders Ativo 135 / 132 40% 1 30.12.2026 -
Petar Stanić Ludogorets Ativo 151 / 145 40% 1 30.12.2026 -
Matt O'Riley Brighton Ativo 138 / 156 40% 2 29.12.2026 -
Jack Rudoni Coventry City Ativo 134 / 141 40% 3 21.12.2026 -
Milan van Ewijk Coventry City Ativo 140 / 125 40% 2 19.12.2026 -
Reda Khadra Qarabag Ativo 140 / 131 40% 2 18.12.2026 -
Marcel Ruiz Crystal Palace Ativo 155 / 145 40% 2 17.12.2026 -
Giacomo Raspadori Atalanta Ativo 136 / 147 40% 1 13.12.2026 -
Aaron Hickey Brentford Ativo 139 / 135 40% 2 09.12.2026 -
Jordan Beyer Burnley Ativo 149 / 129 40% 2 08.12.2026 -
Marcelo Allende Mamelodi Sundowns Ativo 110 / 134 40% 2 04.12.2026 -
Tomáš Rigo Stoke City Ativo 126 / 137 40% 2 04.12.2026 -
Mbekezeli Mbokazi Chicago Fire Ativo 134 / 132 40% 5 03.12.2026 -
Tyrese Campbell Sheffield United Ativo 143 / 126 40% 1 03.12.2026 -
Reece Braithwaite Bloemfontein Celtic Ativo 93 / 118 40% 1 03.12.2026 -
Adam Wharton Crystal Palace Ativo 139 / 144 40% 2 29.11.2026 -
Rodrigo Gomes Wolverhampton Ativo 132 / 150 40% 1 22.11.2026 -
Elliot Anderson Manchester City Ativo 146 / 152 40% 1 20.11.2026 -
Wilson Isidor Sunderland Ativo 137 / 122 40% 1 17.11.2026 -
Lucas Bergvall Tottenham Ativo 128 / 141 40% 2 09.11.2026 -
Antony Portland Timbers Ativo 147 / 122 40% 1 28.10.2026 -
Nicolas Madsen Queens Park Rangers Ativo 140 / 117 40% 1 19.10.2026 -
Talles Magno New York City Ativo 114 / 130 40% 2 17.10.2026 -
Takehiro Tomiyasu Crystal Palace Ativo 145 / 137 40% 1 15.10.2026 -
Michael Kayode Brentford Ativo 141 / 150 40% 1 15.10.2026 -
Alex Scott Bournemouth Ativo 139 / 139 40% 1 08.10.2026 -
Keane Lewis-Potter Brentford Ativo 135 / 152 40% 1 06.10.2026 -
Marcus Edwards Burnley Ativo 147 / 127 40% 1 06.10.2026 -
Djordje Mihailović Toronto FC Ativo 147 / 137 40% 1 05.10.2026 -
James Bacca La Equidad Ativo 136 / 149 40% 2 11.09.2026 -
Philippe Ndinga Philadelphia Union Ativo 100 / 113 40% 1 24.08.2026 -
Facundo Di Biasi Gimnasia La Plata Ativo 118 / 135 40% 1 21.08.2026 -